createdAt,value
2022-10-18T00:00:40.224Z,0.00
2022-10-18T00:01:40.251Z,0.00
2022-10-18T00:02:40.202Z,0.00
2022-10-18T00:03:40.241Z,0.00
2022-10-18T00:04:40.196Z,0.00
2022-10-18T00:05:40.163Z,0.00
2022-10-18T00:06:43.368Z,0.00
2022-10-18T00:07:40.145Z,0.00
2022-10-18T00:08:40.137Z,0.00
2022-10-18T00:09:40.138Z,0.00
2022-10-18T00:10:40.114Z,0.00
2022-10-18T00:11:40.097Z,0.00
2022-10-18T00:12:40.141Z,0.00
2022-10-18T00:13:40.079Z,0.00
2022-10-18T00:14:40.088Z,0.00
2022-10-18T00:15:40.060Z,0.00
2022-10-18T00:16:40.059Z,0.00
2022-10-18T00:17:40.031Z,0.00
2022-10-18T00:18:40.057Z,0.00
2022-10-18T00:19:40.014Z,0.00
2022-10-18T00:20:40.009Z,0.00
2022-10-18T00:21:40.032Z,0.00
2022-10-18T00:22:39.983Z,0.00
2022-10-18T00:23:39.972Z,0.00
2022-10-18T00:24:39.983Z,0.00
2022-10-18T00:25:39.953Z,0.00
2022-10-18T00:26:39.944Z,0.00
2022-10-18T00:27:39.925Z,0.00
2022-10-18T00:28:39.956Z,0.00
2022-10-18T00:29:39.925Z,0.00
2022-10-18T00:30:39.953Z,0.00
2022-10-18T00:31:39.888Z,0.00
2022-10-18T00:32:39.879Z,0.00
2022-10-18T00:33:39.869Z,0.00
2022-10-18T00:34:39.880Z,0.00
2022-10-18T00:35:39.845Z,0.00
2022-10-18T00:36:39.838Z,0.00
2022-10-18T00:37:39.849Z,0.00
2022-10-18T00:38:39.818Z,0.00
2022-10-18T00:39:39.886Z,0.00
2022-10-18T00:40:39.790Z,0.00
2022-10-18T00:41:39.781Z,0.00
2022-10-18T00:42:39.770Z,0.00
2022-10-18T00:43:39.760Z,0.00
2022-10-18T00:44:39.779Z,0.00
2022-10-18T00:45:39.742Z,0.00
2022-10-18T00:46:39.731Z,0.00
2022-10-18T00:47:39.713Z,0.00
2022-10-18T00:48:39.723Z,0.00
2022-10-18T00:49:39.714Z,0.00
2022-10-18T00:50:39.693Z,0.00
2022-10-18T00:51:39.682Z,0.00
2022-10-18T00:52:39.673Z,0.00
2022-10-18T00:53:39.657Z,0.00
2022-10-18T00:54:39.671Z,0.00
2022-10-18T00:55:39.635Z,0.00
2022-10-18T00:56:39.636Z,0.00
2022-10-18T00:57:39.619Z,0.00
2022-10-18T00:58:39.606Z,0.00
2022-10-18T00:59:39.606Z,0.00
2022-10-18T01:00:39.589Z,0.00
2022-10-18T01:01:39.666Z,0.00
2022-10-18T01:02:39.561Z,0.00
2022-10-18T01:03:39.561Z,0.00
2022-10-18T01:04:39.540Z,0.00
2022-10-18T01:05:39.527Z,0.00
2022-10-18T01:06:39.518Z,0.00
2022-10-18T01:07:39.507Z,0.00
2022-10-18T01:08:39.511Z,0.00
2022-10-18T01:09:39.483Z,0.00
2022-10-18T01:10:39.482Z,0.00
2022-10-18T01:11:39.461Z,0.00
2022-10-18T01:12:39.452Z,0.00
2022-10-18T01:13:39.462Z,0.00
2022-10-18T01:14:39.440Z,0.00
2022-10-18T01:15:39.414Z,0.00
2022-10-18T01:16:39.416Z,0.00
2022-10-18T01:17:39.393Z,0.00
2022-10-18T01:18:39.414Z,0.00
2022-10-18T01:19:39.385Z,0.00
2022-10-18T01:20:39.373Z,0.00
2022-10-18T01:21:39.365Z,0.00
2022-10-18T01:22:39.358Z,0.00
2022-10-18T01:23:39.354Z,0.00
2022-10-18T01:24:39.327Z,0.00
2022-10-18T01:25:39.326Z,0.00
2022-10-18T01:26:39.308Z,0.00
2022-10-18T01:27:39.288Z,0.00
2022-10-18T01:28:39.348Z,0.00
2022-10-18T01:29:39.270Z,0.00
2022-10-18T01:30:39.260Z,0.00
2022-10-18T01:31:39.252Z,0.00
2022-10-18T01:32:39.251Z,0.00
2022-10-18T01:33:39.251Z,0.00
2022-10-18T01:34:39.239Z,0.00
2022-10-18T01:35:39.221Z,0.00
2022-10-18T01:36:39.201Z,0.00
2022-10-18T01:37:39.183Z,0.00
2022-10-18T01:38:39.202Z,0.00
2022-10-18T01:39:39.163Z,0.00
2022-10-18T01:40:39.163Z,0.00
2022-10-18T01:41:39.143Z,0.00
2022-10-18T01:42:39.139Z,0.00
2022-10-18T01:43:39.144Z,0.00
2022-10-18T01:44:39.115Z,0.00
2022-10-18T01:45:39.106Z,0.00
2022-10-18T01:46:39.096Z,0.00
2022-10-18T01:47:39.083Z,0.00
2022-10-18T01:48:39.096Z,0.00
2022-10-18T01:49:39.058Z,0.00
2022-10-18T01:50:39.057Z,0.00
2022-10-18T01:51:39.044Z,0.00
2022-10-18T01:52:39.035Z,0.00
2022-10-18T01:53:39.039Z,0.00
2022-10-18T01:54:39.022Z,0.00
2022-10-18T01:55:38.999Z,0.00
2022-10-18T01:56:38.991Z,0.00
2022-10-18T01:57:38.978Z,0.00
2022-10-18T01:58:38.999Z,0.00
2022-10-18T01:59:38.950Z,0.00
2022-10-18T02:00:38.951Z,0.00
2022-10-18T02:01:38.940Z,0.00
2022-10-18T02:02:38.930Z,0.00
2022-10-18T02:03:38.929Z,0.00
2022-10-18T02:04:38.904Z,0.00
2022-10-18T02:05:38.895Z,0.00
2022-10-18T02:06:38.891Z,0.00
2022-10-18T02:07:38.871Z,0.00
2022-10-18T02:08:38.893Z,0.00
2022-10-18T02:09:38.847Z,0.00
2022-10-18T02:10:38.844Z,0.00
2022-10-18T02:11:38.825Z,0.00
2022-10-18T02:12:38.824Z,0.00
2022-10-18T02:13:38.825Z,0.00
2022-10-18T02:14:38.803Z,0.00
2022-10-18T02:15:38.787Z,0.00
2022-10-18T02:16:38.777Z,0.00
2022-10-18T02:17:38.768Z,0.00
2022-10-18T02:18:38.777Z,0.00
2022-10-18T02:19:38.739Z,0.00
2022-10-18T02:20:38.750Z,0.00
2022-10-18T02:21:38.720Z,0.00
2022-10-18T02:22:38.711Z,0.00
2022-10-18T02:23:38.722Z,0.00
2022-10-18T02:24:38.701Z,0.00
2022-10-18T02:25:38.680Z,0.00
2022-10-18T02:26:38.671Z,0.00
2022-10-18T02:27:38.662Z,0.00
2022-10-18T02:28:38.671Z,0.00
2022-10-18T02:29:38.652Z,0.00
2022-10-18T02:30:38.633Z,0.00
2022-10-18T02:31:38.614Z,0.00
2022-10-18T02:32:38.612Z,0.00
2022-10-18T02:33:38.613Z,0.00
2022-10-18T02:34:38.591Z,0.00
2022-10-18T02:35:38.576Z,0.00
2022-10-18T02:36:38.566Z,0.00
2022-10-18T02:37:38.556Z,0.00
2022-10-18T02:38:38.565Z,0.00
2022-10-18T02:39:38.528Z,0.00
2022-10-18T02:40:38.527Z,0.00
2022-10-18T02:41:38.506Z,0.00
2022-10-18T02:42:38.507Z,0.00
2022-10-18T02:43:38.507Z,0.00
2022-10-18T02:44:38.485Z,0.00
2022-10-18T02:45:38.478Z,0.00
2022-10-18T02:46:38.468Z,0.00
2022-10-18T02:47:38.449Z,0.00
2022-10-18T02:48:38.459Z,0.00
2022-10-18T02:49:38.429Z,0.00
2022-10-18T02:50:38.420Z,0.00
2022-10-18T02:51:38.410Z,0.00
2022-10-18T02:52:38.399Z,0.00
2022-10-18T02:53:38.400Z,0.00
2022-10-18T02:54:38.379Z,0.00
2022-10-18T02:55:38.410Z,0.00
2022-10-18T02:56:38.361Z,0.00
2022-10-18T02:57:38.342Z,0.00
2022-10-18T02:58:38.359Z,0.00
2022-10-18T02:59:38.313Z,0.00
2022-10-18T03:00:38.319Z,0.00
2022-10-18T03:01:38.339Z,0.00
2022-10-18T03:02:38.285Z,0.00
2022-10-18T03:03:38.295Z,0.00
2022-10-18T03:04:38.275Z,0.00
2022-10-18T03:05:38.256Z,0.00
2022-10-18T03:06:38.248Z,0.00
2022-10-18T03:07:38.237Z,0.00
2022-10-18T03:08:38.255Z,0.00
2022-10-18T03:09:38.217Z,0.00
2022-10-18T03:10:38.208Z,0.00
2022-10-18T03:11:38.198Z,0.00
2022-10-18T03:12:38.185Z,0.00
2022-10-18T03:13:38.192Z,0.00
2022-10-18T03:14:38.161Z,0.00
2022-10-18T03:15:38.156Z,0.00
2022-10-18T03:16:38.224Z,0.00
2022-10-18T03:17:38.131Z,0.00
2022-10-18T03:18:38.131Z,0.00
2022-10-18T03:19:38.112Z,0.00
2022-10-18T03:20:38.100Z,0.00
2022-10-18T03:21:38.082Z,0.00
2022-10-18T03:22:38.080Z,0.00
2022-10-18T03:23:38.083Z,0.00
2022-10-18T03:24:38.254Z,0.00
2022-10-18T03:25:40.503Z,0.00
2022-10-18T03:26:38.035Z,0.00
2022-10-18T03:27:38.020Z,0.00
2022-10-18T03:28:38.064Z,0.00
2022-10-18T03:29:38.004Z,0.00
2022-10-18T03:30:37.986Z,0.00
2022-10-18T03:31:37.978Z,0.00
2022-10-18T03:32:37.973Z,0.00
2022-10-18T03:33:38.016Z,0.00
2022-10-18T03:34:37.950Z,0.00
2022-10-18T03:35:37.928Z,0.00
2022-10-18T03:36:37.937Z,0.00
2022-10-18T03:37:37.909Z,0.00
2022-10-18T03:38:37.928Z,0.00
2022-10-18T03:39:37.888Z,0.00
2022-10-18T03:40:37.888Z,0.00
2022-10-18T03:41:37.871Z,0.00
2022-10-18T03:42:37.892Z,0.00
2022-10-18T03:43:37.870Z,0.00
2022-10-18T03:44:37.843Z,0.00
2022-10-18T03:45:37.829Z,0.00
2022-10-18T03:46:37.823Z,0.00
2022-10-18T03:47:37.810Z,0.00
2022-10-18T03:48:37.813Z,0.00
2022-10-18T03:49:37.791Z,0.00
2022-10-18T03:50:37.774Z,0.00
2022-10-18T03:51:37.765Z,0.00
2022-10-18T03:52:37.755Z,0.00
2022-10-18T03:53:37.771Z,0.00
2022-10-18T03:54:37.734Z,0.00
2022-10-18T03:55:37.727Z,0.00
2022-10-18T03:56:37.726Z,0.00
2022-10-18T03:57:37.707Z,0.00
2022-10-18T03:58:37.718Z,0.00
2022-10-18T03:59:37.685Z,0.00
2022-10-18T04:00:37.669Z,0.00
2022-10-18T04:01:37.695Z,0.00
2022-10-18T04:02:37.648Z,0.00
2022-10-18T04:03:37.660Z,0.00
2022-10-18T04:04:37.619Z,0.00
2022-10-18T04:05:37.619Z,0.00
2022-10-18T04:06:37.603Z,0.00
2022-10-18T04:07:37.607Z,0.00
2022-10-18T04:08:37.604Z,0.00
2022-10-18T04:09:37.570Z,0.00
2022-10-18T04:10:37.562Z,0.00
2022-10-18T04:11:37.562Z,0.00
2022-10-18T04:12:37.540Z,0.00
2022-10-18T04:13:37.552Z,0.00
2022-10-18T04:14:37.513Z,0.00
2022-10-18T04:15:37.513Z,0.00
2022-10-18T04:16:37.496Z,0.00
2022-10-18T04:17:37.502Z,0.00
2022-10-18T04:18:37.494Z,0.00
2022-10-18T04:19:37.474Z,0.00
2022-10-18T04:20:37.465Z,0.00
2022-10-18T04:21:37.445Z,0.00
2022-10-18T04:22:37.436Z,0.00
2022-10-18T04:23:38.840Z,0.00
2022-10-18T04:24:37.406Z,0.00
2022-10-18T04:25:37.441Z,0.00
2022-10-18T04:26:37.389Z,0.00
2022-10-18T04:27:37.386Z,0.00
2022-10-18T04:28:37.532Z,0.00
2022-10-18T04:29:37.358Z,0.00
2022-10-18T04:30:37.350Z,0.00
2022-10-18T04:31:37.340Z,0.00
2022-10-18T04:32:37.330Z,0.00
2022-10-18T04:33:37.330Z,0.00
2022-10-18T04:34:37.349Z,0.00
2022-10-18T04:35:37.298Z,0.00
2022-10-18T04:36:37.280Z,0.00
2022-10-18T04:37:37.281Z,0.00
2022-10-18T04:38:37.282Z,0.00
2022-10-18T04:39:37.252Z,0.00
2022-10-18T04:40:37.242Z,0.00
2022-10-18T04:41:37.240Z,0.00
2022-10-18T04:42:37.212Z,0.00
2022-10-18T04:43:37.285Z,0.00
2022-10-18T04:44:37.196Z,0.00
2022-10-18T04:45:37.185Z,0.00
2022-10-18T04:46:37.181Z,0.00
2022-10-18T04:47:37.169Z,0.00
2022-10-18T04:48:37.165Z,0.00
2022-10-18T04:49:37.146Z,0.00
2022-10-18T04:50:37.131Z,0.00
2022-10-18T04:51:37.125Z,0.00
2022-10-18T04:52:37.149Z,0.00
2022-10-18T04:53:37.118Z,0.00
2022-10-18T04:54:37.098Z,0.00
2022-10-18T04:55:37.085Z,0.00
2022-10-18T04:56:37.058Z,0.00
2022-10-18T04:57:37.058Z,0.00
2022-10-18T04:58:37.090Z,0.00
2022-10-18T04:59:37.039Z,0.00
2022-10-18T05:00:39.946Z,0.00
2022-10-18T05:01:37.092Z,0.00
2022-10-18T05:02:37.001Z,0.00
2022-10-18T05:03:37.000Z,0.00
2022-10-18T05:04:36.993Z,0.00
2022-10-18T05:05:49.814Z,0.00
2022-10-18T05:06:37.952Z,0.00
2022-10-18T05:07:36.950Z,0.00
2022-10-18T05:08:36.941Z,0.00
2022-10-18T05:09:36.950Z,0.00
2022-10-18T05:10:36.913Z,0.00
2022-10-18T05:11:36.923Z,0.00
2022-10-18T05:12:36.895Z,0.00
2022-10-18T05:13:36.885Z,0.00
2022-10-18T05:14:36.895Z,0.00
2022-10-18T05:15:36.866Z,0.00
2022-10-18T05:16:36.855Z,0.00
2022-10-18T05:17:36.836Z,0.00
2022-10-18T05:18:36.827Z,0.00
2022-10-18T05:19:36.837Z,0.00
2022-10-18T05:20:36.808Z,0.00
2022-10-18T05:21:36.797Z,0.00
2022-10-18T05:22:36.788Z,0.00
2022-10-18T05:23:36.789Z,0.00
2022-10-18T05:24:36.780Z,0.00
2022-10-18T05:25:36.760Z,0.00
2022-10-18T05:26:36.740Z,0.00
2022-10-18T05:27:36.731Z,0.00
2022-10-18T05:28:41.017Z,0.00
2022-10-18T05:29:36.745Z,0.00
2022-10-18T05:30:36.701Z,0.00
2022-10-18T05:31:36.692Z,0.00
2022-10-18T05:32:36.679Z,0.00
2022-10-18T05:33:36.757Z,0.00
2022-10-18T05:34:36.674Z,0.00
2022-10-18T05:35:36.653Z,0.00
2022-10-18T05:36:36.633Z,0.00
2022-10-18T05:37:36.624Z,0.00
2022-10-18T05:39:36.626Z,0.00
2022-10-18T05:40:36.585Z,0.00
2022-10-18T05:41:36.592Z,0.00
2022-10-18T05:42:36.566Z,0.00
2022-10-18T05:43:36.566Z,0.00
2022-10-18T05:44:36.517Z,1.00
2022-10-18T05:45:36.548Z,0.00
2022-10-18T05:46:36.528Z,0.00
2022-10-18T05:47:36.528Z,0.00
2022-10-18T05:48:36.506Z,0.00
2022-10-18T05:49:36.518Z,0.00
2022-10-18T05:50:39.546Z,0.00
2022-10-18T05:51:36.478Z,0.00
2022-10-18T05:52:36.462Z,0.00
2022-10-18T05:53:37.802Z,0.00
2022-10-18T05:54:36.452Z,0.00
2022-10-18T05:55:36.388Z,1.00
2022-10-18T05:56:36.410Z,1.00
2022-10-18T05:57:36.352Z,1.00
2022-10-18T05:58:36.398Z,0.00
2022-10-18T05:59:36.403Z,0.00
2022-10-18T06:00:36.322Z,2.00
2022-10-18T06:01:36.317Z,2.00
2022-10-18T06:02:36.366Z,1.00
2022-10-18T06:03:36.291Z,1.00
2022-10-18T06:04:36.351Z,0.00
2022-10-18T06:05:36.394Z,0.00
2022-10-18T06:06:36.274Z,2.00
2022-10-18T06:07:36.245Z,1.00
2022-10-18T06:08:36.245Z,1.00
2022-10-18T06:09:36.244Z,1.00
2022-10-18T06:10:36.216Z,2.00
2022-10-18T06:11:36.196Z,2.00
2022-10-18T06:12:36.189Z,8.00
2022-10-18T06:13:36.185Z,5.00
2022-10-18T06:14:36.185Z,7.00
2022-10-18T06:15:36.158Z,7.00
2022-10-18T06:17:36.232Z,8.00
2022-10-18T06:18:36.148Z,6.00
2022-10-18T06:19:36.136Z,8.00
2022-10-18T06:20:36.102Z,5.00
2022-10-18T06:21:36.099Z,5.00
2022-10-18T06:22:36.080Z,8.00
2022-10-18T06:23:36.070Z,8.00
2022-10-18T06:24:36.073Z,8.00
2022-10-18T06:25:36.054Z,6.00
2022-10-18T06:26:36.033Z,8.00
2022-10-18T06:27:36.032Z,6.00
2022-10-18T06:28:36.067Z,2.00
2022-10-18T06:29:36.023Z,2.00
2022-10-18T06:30:35.995Z,2.00
2022-10-18T06:31:35.996Z,8.00
2022-10-18T06:32:35.971Z,4.00
2022-10-18T06:33:35.964Z,3.00
2022-10-18T06:34:35.973Z,4.00
2022-10-18T06:35:35.958Z,11.00
2022-10-18T06:36:35.937Z,9.00
2022-10-18T06:37:36.200Z,9.00
2022-10-18T06:38:35.906Z,15.00
2022-10-18T06:39:35.914Z,14.00
2022-10-18T06:40:35.887Z,15.00
2022-10-18T06:41:35.877Z,19.00
2022-10-18T06:42:35.921Z,17.00
2022-10-18T06:43:35.855Z,17.00
2022-10-18T06:44:35.860Z,23.00
2022-10-18T06:45:35.844Z,20.00
2022-10-18T06:46:35.826Z,25.00
2022-10-18T06:47:35.811Z,26.00
2022-10-18T06:48:35.812Z,31.00
2022-10-18T06:49:35.790Z,31.00
2022-10-18T06:50:35.773Z,33.00
2022-10-18T06:51:35.771Z,37.00
2022-10-18T06:52:35.753Z,38.00
2022-10-18T06:53:40.747Z,41.00
2022-10-18T06:54:36.733Z,43.00
2022-10-18T06:55:35.724Z,47.00
2022-10-18T06:56:35.705Z,52.00
2022-10-18T06:57:35.704Z,51.00
2022-10-18T06:58:35.703Z,54.00
2022-10-18T06:59:35.684Z,63.00
2022-10-18T07:00:35.665Z,70.00
2022-10-18T07:01:35.705Z,83.00
2022-10-18T07:02:35.647Z,88.00
2022-10-18T07:03:35.676Z,104.00
2022-10-18T07:04:35.627Z,111.00
2022-10-18T07:05:35.623Z,121.00
2022-10-18T07:06:35.597Z,127.00
2022-10-18T07:07:35.852Z,132.00
2022-10-18T07:08:35.585Z,139.00
2022-10-18T07:09:35.595Z,134.00
2022-10-18T07:10:35.558Z,135.00
2022-10-18T07:11:35.558Z,138.00
2022-10-18T07:12:35.539Z,141.00
2022-10-18T07:13:35.543Z,145.00
2022-10-18T07:14:35.531Z,147.00
2022-10-18T07:15:35.574Z,148.00
2022-10-18T07:16:35.492Z,143.00
2022-10-18T07:17:35.491Z,139.00
2022-10-18T07:18:35.479Z,138.00
2022-10-18T07:19:35.482Z,125.00
2022-10-18T07:20:35.455Z,119.00
2022-10-18T07:21:35.443Z,108.00
2022-10-18T07:22:35.435Z,103.00
2022-10-18T07:23:35.425Z,109.00
2022-10-18T07:24:35.428Z,113.00
2022-10-18T07:25:35.404Z,113.00
2022-10-18T07:26:35.384Z,118.00
2022-10-18T07:27:35.407Z,117.00
2022-10-18T07:28:35.390Z,123.00
2022-10-18T07:29:35.376Z,125.00
2022-10-18T07:30:35.348Z,129.00
2022-10-18T07:31:35.350Z,133.00
2022-10-18T07:32:35.324Z,141.00
2022-10-18T07:33:35.316Z,147.00
2022-10-18T07:34:35.318Z,158.00
2022-10-18T07:35:35.295Z,168.00
2022-10-18T07:36:35.278Z,178.00
2022-10-18T07:37:35.831Z,185.00
2022-10-18T07:38:35.261Z,196.00
2022-10-18T07:39:35.500Z,192.00
2022-10-18T07:40:35.239Z,193.00
2022-10-18T07:41:35.230Z,194.00
2022-10-18T07:42:35.213Z,198.00
2022-10-18T07:43:35.211Z,204.00
2022-10-18T07:44:35.212Z,211.00
2022-10-18T07:45:35.189Z,218.00
2022-10-18T07:46:35.178Z,229.00
2022-10-18T07:47:35.478Z,236.00
2022-10-18T07:48:35.162Z,240.00
2022-10-18T07:49:35.163Z,237.00
2022-10-18T07:50:35.136Z,227.00
2022-10-18T07:51:35.123Z,212.00
2022-10-18T07:52:35.111Z,199.00
2022-10-18T07:53:35.112Z,185.00
2022-10-18T07:54:35.105Z,176.00
2022-10-18T07:55:35.096Z,171.00
2022-10-18T07:56:35.077Z,170.00
2022-10-18T07:57:35.436Z,177.00
2022-10-18T07:58:35.048Z,181.00
2022-10-18T07:59:35.068Z,190.00
2022-10-18T08:00:35.027Z,197.00
2022-10-18T08:01:35.085Z,200.00
2022-10-18T08:02:35.006Z,197.00
2022-10-18T08:03:35.000Z,198.00
2022-10-18T08:04:35.009Z,197.00
2022-10-18T08:05:34.978Z,188.00
2022-10-18T08:06:34.970Z,177.00
2022-10-18T08:07:35.127Z,171.00
2022-10-18T08:08:34.951Z,167.00
2022-10-18T08:09:34.951Z,161.00
2022-10-18T08:10:34.921Z,158.00
2022-10-18T08:11:34.910Z,155.00
2022-10-18T08:12:34.911Z,156.00
2022-10-18T08:13:34.889Z,158.00
2022-10-18T08:14:34.912Z,162.00
2022-10-18T08:15:34.868Z,163.00
2022-10-18T08:16:34.875Z,165.00
2022-10-18T08:17:35.129Z,164.00
2022-10-18T08:18:34.972Z,167.00
2022-10-18T08:19:34.835Z,166.00
2022-10-18T08:20:34.822Z,171.00
2022-10-18T08:21:34.808Z,176.00
2022-10-18T08:22:34.795Z,181.00
2022-10-18T08:23:34.782Z,183.00
2022-10-18T08:24:34.796Z,190.00
2022-10-18T08:26:34.795Z,197.00
2022-10-18T08:27:35.086Z,203.00
2022-10-18T08:28:34.795Z,204.00
2022-10-18T08:29:34.810Z,198.00
2022-10-18T08:30:34.715Z,195.00
2022-10-18T08:31:34.699Z,190.00
2022-10-18T08:32:34.987Z,186.00
2022-10-18T08:33:34.679Z,181.00
2022-10-18T08:34:34.713Z,172.00
2022-10-18T08:35:34.661Z,171.00
2022-10-18T08:36:34.653Z,161.00
2022-10-18T08:37:34.995Z,156.00
2022-10-18T08:38:34.635Z,159.00
2022-10-18T08:39:34.652Z,161.00
2022-10-18T08:40:34.605Z,163.00
2022-10-18T08:41:34.594Z,168.00
2022-10-18T08:42:34.946Z,173.00
2022-10-18T08:44:34.564Z,178.00
2022-10-18T08:45:43.008Z,187.00
2022-10-18T08:46:35.545Z,186.00
2022-10-18T08:47:34.792Z,191.00
2022-10-18T08:48:34.553Z,192.00
2022-10-18T08:49:34.510Z,198.00
2022-10-18T08:50:34.503Z,199.00
2022-10-18T08:51:34.487Z,197.00
2022-10-18T08:52:34.571Z,191.00
2022-10-18T08:53:36.264Z,185.00
2022-10-18T08:54:34.477Z,178.00
2022-10-18T08:55:34.446Z,180.00
2022-10-18T08:56:34.439Z,179.00
2022-10-18T08:57:34.811Z,175.00
2022-10-18T08:58:34.422Z,176.00
2022-10-18T08:59:34.489Z,178.00
2022-10-18T09:00:34.403Z,177.00
2022-10-18T09:01:34.402Z,177.00
2022-10-18T09:02:35.057Z,172.00
2022-10-18T09:03:34.398Z,175.00
2022-10-18T09:04:34.380Z,173.00
2022-10-18T09:05:34.341Z,175.00
2022-10-18T09:06:34.332Z,183.00
2022-10-18T09:07:34.323Z,184.00
2022-10-18T09:08:34.314Z,191.00
2022-10-18T09:09:34.312Z,201.00
2022-10-18T09:10:34.290Z,211.00
2022-10-18T09:11:34.275Z,226.00
2022-10-18T09:12:34.505Z,235.00
2022-10-18T09:13:34.266Z,245.00
2022-10-18T09:14:34.266Z,258.00
2022-10-18T09:15:34.236Z,267.00
2022-10-18T09:16:34.226Z,274.00
2022-10-18T09:17:34.208Z,287.00
2022-10-18T09:18:34.206Z,299.00
2022-10-18T09:19:34.209Z,313.00
2022-10-18T09:20:34.187Z,325.00
2022-10-18T09:21:34.188Z,330.00
2022-10-18T09:22:34.477Z,335.00
2022-10-18T09:23:34.150Z,336.00
2022-10-18T09:24:34.159Z,336.00
2022-10-18T09:25:34.130Z,337.00
2022-10-18T09:26:34.121Z,339.00
2022-10-18T09:27:34.109Z,346.00
2022-10-18T09:28:34.138Z,352.00
2022-10-18T09:29:34.102Z,358.00
2022-10-18T09:30:34.091Z,359.00
2022-10-18T09:31:34.063Z,371.00
2022-10-18T09:32:34.478Z,383.00
2022-10-18T09:33:34.042Z,390.00
2022-10-18T09:34:34.054Z,388.00
2022-10-18T09:35:34.026Z,386.00
2022-10-18T09:36:34.024Z,384.00
2022-10-18T09:37:34.005Z,395.00
2022-10-18T09:38:34.006Z,426.00
2022-10-18T09:39:33.997Z,487.00
2022-10-18T09:40:33.976Z,601.00
2022-10-18T09:41:33.964Z,764.00
2022-10-18T09:42:34.362Z,928.00
2022-10-18T09:43:33.946Z,1029.00
2022-10-18T09:44:33.953Z,1088.00
2022-10-18T09:45:33.917Z,1392.00
2022-10-18T09:46:33.908Z,1321.00
2022-10-18T09:47:33.898Z,1512.00
2022-10-18T09:48:33.890Z,1517.00
2022-10-18T09:49:33.895Z,822.00
2022-10-18T09:50:33.878Z,572.00
2022-10-18T09:51:33.868Z,1007.00
2022-10-18T09:52:34.162Z,1299.00
2022-10-18T09:53:33.833Z,1405.00
2022-10-18T09:54:33.841Z,1464.00
2022-10-18T09:55:33.824Z,1296.00
2022-10-18T09:56:37.868Z,1052.00
2022-10-18T09:57:35.047Z,2045.00
2022-10-18T09:58:33.794Z,1717.00
2022-10-18T09:59:33.784Z,1508.00
2022-10-18T10:00:33.765Z,880.00
2022-10-18T10:01:33.743Z,647.00
2022-10-18T10:02:33.858Z,534.00
2022-10-18T10:03:33.727Z,471.00
2022-10-18T10:04:33.738Z,615.00
2022-10-18T10:05:33.725Z,641.00
2022-10-18T10:06:33.705Z,741.00
2022-10-18T10:07:34.952Z,758.00
2022-10-18T10:08:33.675Z,900.00
2022-10-18T10:09:33.677Z,965.00
2022-10-18T10:10:33.657Z,1086.00
2022-10-18T10:11:33.638Z,1027.00
2022-10-18T10:12:33.629Z,1024.00
2022-10-18T10:13:33.626Z,1234.00
2022-10-18T10:14:33.640Z,1292.00
2022-10-18T10:15:37.093Z,1341.00
2022-10-18T10:16:34.604Z,1482.00
2022-10-18T10:17:34.012Z,1399.00
2022-10-18T10:18:33.574Z,1612.00
2022-10-18T10:19:33.591Z,1523.00
2022-10-18T10:20:33.550Z,1401.00
2022-10-18T10:21:33.533Z,1236.00
2022-10-18T10:22:33.538Z,968.00
2022-10-18T10:23:33.512Z,1347.00
2022-10-18T10:24:33.523Z,691.00
2022-10-18T10:25:33.511Z,2971.00
2022-10-18T10:26:33.492Z,3904.00
2022-10-18T10:27:33.892Z,3611.00
2022-10-18T10:28:33.513Z,1366.00
2022-10-18T10:29:44.007Z,1070.00
2022-10-18T10:30:34.445Z,4246.00
2022-10-18T10:31:33.428Z,3958.00
2022-10-18T10:32:33.425Z,2551.00
2022-10-18T10:33:33.406Z,2838.00
2022-10-18T10:34:33.419Z,1314.00
2022-10-18T10:36:34.385Z,1396.00
2022-10-18T10:37:33.693Z,985.00
2022-10-18T10:38:33.358Z,1649.00
2022-10-18T10:39:33.359Z,1709.00
2022-10-18T10:40:33.340Z,376.00
2022-10-18T10:41:33.348Z,534.00
2022-10-18T10:42:33.632Z,1845.00
2022-10-18T10:43:38.294Z,1999.00
2022-10-18T10:44:34.321Z,2517.00
2022-10-18T10:45:33.281Z,854.00
2022-10-18T10:46:33.272Z,1929.00
2022-10-18T10:47:33.264Z,2041.00
2022-10-18T10:48:33.564Z,3078.00
2022-10-18T10:49:40.144Z,2688.00
2022-10-18T10:51:33.214Z,2385.00
2022-10-18T10:52:33.216Z,774.00
2022-10-18T10:53:33.410Z,876.00
2022-10-18T10:54:33.214Z,3831.00
2022-10-18T10:55:35.585Z,1624.00
2022-10-18T10:56:33.176Z,618.00
2022-10-18T10:57:33.164Z,935.00
2022-10-18T10:58:33.153Z,6621.00
2022-10-18T10:59:33.179Z,2949.00
2022-10-18T11:00:33.127Z,1011.00
2022-10-18T11:01:33.125Z,1185.00
2022-10-18T11:02:33.301Z,1010.00
2022-10-18T11:03:33.132Z,662.00
2022-10-18T11:04:33.109Z,2259.00
2022-10-18T11:05:33.069Z,1536.00
2022-10-18T11:06:33.060Z,456.00
2022-10-18T11:07:33.050Z,841.00
2022-10-18T11:08:33.053Z,742.00
2022-10-18T11:09:33.053Z,439.00
2022-10-18T11:10:33.019Z,2856.00
2022-10-18T11:11:33.022Z,768.00
2022-10-18T11:12:33.307Z,1613.00
2022-10-18T11:13:32.983Z,2448.00
2022-10-18T11:14:33.007Z,1914.00
2022-10-18T11:15:32.964Z,1277.00
2022-10-18T11:16:32.963Z,780.00
2022-10-18T11:17:32.945Z,751.00
2022-10-18T11:18:32.939Z,519.00
2022-10-18T11:19:32.936Z,394.00
2022-10-18T11:20:32.916Z,307.00
2022-10-18T11:21:32.902Z,375.00
2022-10-18T11:22:33.244Z,289.00
2022-10-18T11:23:32.875Z,200.00
2022-10-18T11:24:32.894Z,235.00
2022-10-18T11:25:32.857Z,171.00
2022-10-18T11:26:32.858Z,284.00
2022-10-18T11:27:32.829Z,341.00
2022-10-18T11:28:32.897Z,265.00
2022-10-18T11:29:32.837Z,148.00
2022-10-18T11:30:32.808Z,240.00
2022-10-18T11:31:32.789Z,216.00
2022-10-18T11:32:33.182Z,299.00
2022-10-18T11:33:56.323Z,376.00
2022-10-18T11:34:33.782Z,288.00
2022-10-18T11:35:32.751Z,771.00
2022-10-18T11:36:35.131Z,541.00
2022-10-18T11:37:36.029Z,597.00
2022-10-18T11:38:33.724Z,600.00
2022-10-18T11:39:32.724Z,569.00
2022-10-18T11:40:32.704Z,477.00
2022-10-18T11:41:32.694Z,378.00
2022-10-18T11:42:34.782Z,2156.00
2022-10-18T11:43:57.221Z,522.00
2022-10-18T11:44:33.675Z,222.00
2022-10-18T11:45:32.666Z,293.00
2022-10-18T11:46:32.651Z,445.00
2022-10-18T11:47:32.807Z,546.00
2022-10-18T11:48:32.638Z,1429.00
2022-10-18T11:49:32.627Z,696.00
2022-10-18T11:50:32.616Z,3577.00
2022-10-18T11:51:38.670Z,1380.00
2022-10-18T11:52:33.579Z,1474.00
2022-10-18T11:53:32.571Z,1591.00
2022-10-18T11:54:32.615Z,941.00
2022-10-18T11:55:33.188Z,1747.00
2022-10-18T11:56:32.539Z,1275.00
2022-10-18T11:57:32.807Z,3569.00
2022-10-18T11:58:32.519Z,2465.00
2022-10-18T11:59:32.522Z,1455.00
2022-10-18T12:00:32.503Z,766.00
2022-10-18T12:01:32.484Z,343.00
2022-10-18T12:02:32.656Z,179.00
2022-10-18T12:03:32.490Z,139.00
2022-10-18T12:04:32.473Z,223.00
2022-10-18T12:05:32.434Z,369.00
2022-10-18T12:06:32.448Z,7893.00
2022-10-18T12:07:32.601Z,8457.00
2022-10-18T12:08:32.416Z,7460.00
2022-10-18T12:09:32.416Z,8234.00
2022-10-18T12:10:44.268Z,7451.00
2022-10-18T12:11:33.386Z,8087.00
2022-10-18T12:12:32.673Z,9655.00
2022-10-18T12:13:32.356Z,7768.00
2022-10-18T12:14:32.368Z,1474.00
2022-10-18T12:15:32.354Z,1201.00
2022-10-18T12:16:50.382Z,1215.00
2022-10-18T12:17:51.287Z,827.00
2022-10-18T12:18:33.303Z,820.00
2022-10-18T12:19:32.321Z,981.00
2022-10-18T12:20:32.284Z,789.00
2022-10-18T12:21:32.279Z,623.00
2022-10-18T12:22:32.495Z,442.00
2022-10-18T12:23:32.252Z,358.00
2022-10-18T12:24:32.264Z,492.00
2022-10-18T12:25:32.233Z,592.00
2022-10-18T12:26:32.231Z,662.00
2022-10-18T12:27:32.214Z,726.00
2022-10-18T12:28:32.265Z,636.00
2022-10-18T12:29:32.206Z,488.00
2022-10-18T12:30:32.186Z,223.00
2022-10-18T12:31:32.184Z,325.00
2022-10-18T12:32:32.484Z,587.00
2022-10-18T12:33:32.155Z,3252.00
2022-10-18T12:34:32.155Z,923.00
2022-10-18T12:35:32.127Z,4283.00
2022-10-18T12:36:32.121Z,1849.00
2022-10-18T12:37:32.555Z,718.00
2022-10-18T12:38:32.090Z,2359.00
2022-10-18T12:39:43.326Z,2121.00
2022-10-18T12:40:33.071Z,3385.00
2022-10-18T12:41:32.073Z,623.00
2022-10-18T12:42:32.054Z,3695.00
2022-10-18T12:43:32.053Z,784.00
2022-10-18T12:44:32.052Z,3499.00
2022-10-18T12:45:32.022Z,1534.00
2022-10-18T12:46:34.999Z,985.00
2022-10-18T12:47:32.335Z,815.00
2022-10-18T12:48:31.995Z,567.00
2022-10-18T12:49:32.002Z,521.00
2022-10-18T12:50:31.975Z,546.00
2022-10-18T12:51:31.963Z,384.00
2022-10-18T12:52:31.954Z,376.00
2022-10-18T12:53:31.943Z,637.00
2022-10-18T12:54:31.947Z,753.00
2022-10-18T12:55:31.995Z,711.00
2022-10-18T12:56:31.897Z,582.00
2022-10-18T12:57:32.251Z,499.00